This is the latest recevied weather packets stored in our database for station/object CX2SA-13. If no packets are shown the sender has not sent any weather packets the latest 10 day(s).
| Time | Temp. | Humidity | Pressure | Rain* | Wind** | Luminosity | Snow |
|---|---|---|---|---|---|---|---|
| 1778351384 | 11.67° C | 80% | 1017.9 hPa | 0 mm | - | - | - |
| 1778350485 | 11.11° C | 82% | 1017.9 hPa | 0 mm | - | - | - |
| 1778349584 | 11.11° C | 85% | 1017.9 hPa | 0 mm | - | - | - |
| 1778348685 | 11.11° C | 87% | 1017.9 hPa | 0 mm | - | - | - |
| 1778347786 | 10.56° C | 86% | 1017.9 hPa | 0 mm | - | - | - |
| 1778346884 | 11.67° C | 79% | 1017.6 hPa | 0 mm | - | - | - |
| 1778345985 | 11.11° C | 82% | 1017.6 hPa | 0 mm | - | - | - |
| 1778345086 | 11.67° C | 80% | 1017.9 hPa | 0 mm | - | - | - |
| 1778344184 | 11.11° C | 83% | 1017.2 hPa | 0 mm | - | - | - |
| 1778343285 | 10.56° C | 84% | 1017.6 hPa | 0 mm | - | - | - |
| 1778342384 | 10.56° C | 86% | 1017.6 hPa | 0 mm | - | - | - |
| 1778341484 | 11.11° C | 83% | 1017.6 hPa | 0 mm | - | - | - |
| 1778340585 | 11.11° C | 83% | 1017.6 hPa | 0 mm | - | - | - |
| 1778339684 | 11.67° C | 79% | 1017.2 hPa | 0 mm | - | - | - |
| 1778338785 | 11.67° C | 77% | 1017.2 hPa | 0 mm | - | - | - |
| 1778337885 | 11.67° C | 78% | 1016.9 hPa | 0 mm | - | - | - |
| 1778336984 | 11.67° C | 79% | 1016.5 hPa | 0 mm | - | - | - |
| 1778336085 | 11.67° C | 78% | 1016.5 hPa | 0 mm | - | - | - |
| 1778335186 | 11.11° C | 79% | 1016.5 hPa | 0 mm | - | - | - |
| 1778334284 | 11.11° C | 81% | 1016.2 hPa | 0 mm | - | - | - |
| 1778333385 | 10.56° C | 82% | 1015.9 hPa | 0 mm | - | - | - |
| 1778332484 | 10.56° C | 82% | 1015.5 hPa | 0 mm | - | - | - |
| 1778331584 | 10.56° C | 82% | 1015.5 hPa | 0 mm | - | - | - |
| 1778330685 | 10° C | 84% | 1015.5 hPa | 0 mm | - | - | - |
| 1778329784 | 9.44° C | 84% | 1015.2 hPa | 0 mm | - | - | - |
* Rain since midnight (hover to see other rain measurements)
** Current wind speed in m/s (hover to see current wind gust speed)